Flight Track Log - Related Links

Times and Time Zones

All times are in EDT time to prevent confusion due to time zone crossing. See the TRS78 flight status page for this flight to view local times or setup timezone preferences in your user account.

Time Position Orientation Groundspeed Altitude Reporting Facility
EDT Latitude Longitude Course Direction KTS MPH feet Rate Location/Type
Fri 10:28:57 PM 33.6306 -84.4706 52° Northeast 461 531 3,400  Level Atlanta Center
Fri 10:29:57 PM 33.6075 -84.5375 248° West 344 396 4,500 1,800 Climbing Atlanta Center
Fri 10:30:57 PM 33.5531 -84.5872 217° Southwest 279 321 7,000 3,000 Climbing Atlanta Center
Fri 10:31:57 PM 33.4758 -84.5642 166° South 281 323 10,500 2,500 Climbing Atlanta Center
Fri 10:32:57 PM 33.4511 -84.4544 105° East 314 361 12,000 1,750 Climbing Atlanta Center
Fri 10:33:57 PM 33.4578 -84.3228 86° East 368 423 14,000 1,900 Climbing Atlanta Center
Fri 10:34:00 PM 34.0880 -83.8484 52° Northeast  Level Estimated
Fri 10:34:57 PM 33.5394 -84.2258 45° Northeast 368 423 15,800  Level Atlanta Center
Fri 10:35:57 PM 33.6461 -84.1536 29° Northeast 393 452 18,100 2,200 Climbing Atlanta Center
Fri 10:36:57 PM 33.7503 -84.0639 36° Northeast 442 509 20,200 2,000 Climbing Atlanta Center
Fri 10:37:57 PM 33.8214 -83.9289 58° Northeast 461 531 22,100 1,750 Climbing Atlanta Center
Fri 10:38:57 PM 33.8942 -83.7836 59° Northeast 488 562 23,700 1,600 Climbing Atlanta Center
Fri 10:39:57 PM 33.9772 -83.6381 55° Northeast 513 590 25,300 1,400 Climbing Atlanta Center
Fri 10:40:57 PM 34.0583 -83.5147 52° Northeast 519 597 26,500 1,100 Climbing Atlanta Center
Fri 10:41:57 PM 34.1492 -83.3661 54° Northeast 539 620 27,500 1,100 Climbing Atlanta Center
Fri 10:42:57 PM 34.2422 -83.2194 52° Northeast 544 626 28,700 1,200 Climbing Atlanta Center
Fri 10:43:57 PM 34.3392 -83.0653 53° Northeast 561 646 29,900 1,450 Climbing Atlanta Center
Fri 10:44:57 PM 34.4339 -82.9131 53° Northeast 561 646 31,600 1,700 Climbing Atlanta Center
Fri 10:45:57 PM 34.5203 -82.7656 55° Northeast 552 635 33,300 1,750 Climbing Atlanta Center
Fri 10:46:57 PM 34.6083 -82.6206 54° Northeast 533 613 35,100 1,450 Climbing Atlanta Center
Fri 10:47:57 PM 34.6986 -82.4850 51° Northeast 522 601 36,200 900 Climbing Atlanta Center
Fri 10:48:57 PM 34.7844 -82.3444 53° Northeast 517 595 36,900 400 Climbing Atlanta Center
Fri 10:49:57 PM 34.8719 -82.2008 53° Northeast 517 595 37,000 50 Climbing Atlanta Center
Fri 10:50:57 PM 34.9636 -82.0492 54° Northeast 510 587 37,000  Level Atlanta Center
Fri 10:51:57 PM 35.0467 -81.9078 54° Northeast 510 587 37,000  Level Atlanta Center
Fri 10:52:57 PM 35.1256 -81.7608 57° Northeast 521 600 37,000  Level Atlanta Center
Fri 10:53:57 PM 35.2039 -81.6086 58° Northeast 521 600 37,000  Level Atlanta Center
Fri 10:54:57 PM 35.2822 -81.4589 57° Northeast 521 600 37,000  Level Atlanta Center
Fri 10:55:57 PM 35.3583 -81.3114 58° Northeast 516 594 37,000  Level Atlanta Center
Fri 10:56:57 PM 35.4361 -81.1558 58° Northeast 521 600 37,000  Level Atlanta Center
Fri 10:57:57 PM 35.5161 -81.0075 56° Northeast 528 608 37,000  Level Atlanta Center
Fri 10:58:57 PM 35.5956 -80.8567 57° Northeast 528 608 37,000  Level Atlanta Center
Fri 10:59:57 PM 35.6731 -80.7053 58° Northeast 528 608 37,000  Level Atlanta Center
Fri 11:00:57 PM 35.7522 -80.5561 57° Northeast 523 602 37,000 -474 Level Atlanta Center
Fri 11:03:07 PM 35.9203 -80.2267 58° Northeast 541 623 35,500 -821 Descending Washington Center
Fri 11:04:07 PM 35.9967 -80.0797 57° Northeast 523 602 34,400 -1,240 Descending Washington Center
Fri 11:05:08 PM 36.0800 -79.9175 58° Northeast 523 602 33,000 -706 Descending Washington Center
Fri 11:06:06 PM 36.1625 -79.7703 55° Northeast 559 643 33,000  Level Washington Center
Fri 11:07:07 PM 36.2622 -79.5953 55° Northeast 570 656 33,000 -545 Level Washington Center
Fri 11:08:07 PM 36.3572 -79.4325 54° Northeast 570 656 31,900 -1,261 Descending Washington Center
Fri 11:09:06 PM 36.4483 -79.2611 57° Northeast 580 667 30,500 -1,462 Descending Washington Center
Fri 11:10:06 PM 36.5450 -79.0978 54° Northeast 585 673 29,000 -1,240 Descending Washington Center
Fri 11:11:07 PM 36.6375 -78.9283 56° Northeast 590 679 28,000 -942 Descending Washington Center
Fri 11:12:07 PM 36.7186 -78.7817 55° Northeast 585 673 27,100 -992 Descending Washington Center
Fri 11:13:08 PM 36.8497 -78.6364 42° Northeast 565 650 26,000 -1,059 Descending Washington Center
Fri 11:14:06 PM 36.9717 -78.5164 38° Northeast 560 644 25,000 -508 Descending Washington Center
Fri 11:15:06 PM 37.0872 -78.3986 39° Northeast 547 629 25,000 -198 Level Washington Center
Fri 11:16:07 PM 37.2044 -78.2803 39° Northeast 535 616 24,600 -446 Descending Washington Center
Fri 11:17:07 PM 37.3069 -78.1769 39° Northeast 529 609 24,100 -500 Descending Washington Center
Fri 11:18:07 PM 37.4283 -78.0553 39° Northeast 523 602 23,600 -500 Descending Washington Center
Fri 11:19:07 PM 37.5414 -77.9333 41° Northeast 523 602 23,100 -500 Descending Washington Center
Fri 11:20:07 PM 37.6561 -77.8189 38° Northeast 528 608 22,600 -1,109 Descending Washington Center
Fri 11:21:06 PM 37.7731 -77.6989 39° Northeast 528 608 20,900 -2,083 Descending Washington Center
Fri 11:22:08 PM 37.8814 -77.5833 40° Northeast 528 608 18,400 -2,459 Descending Washington Center
Fri 11:23:08 PM 37.9894 -77.4756 38° Northeast 514 592 15,900 -2,420 Descending Washington Center
Fri 11:24:07 PM 38.0828 -77.3778 39° Northeast 473 544 13,600 -2,441 Descending Washington Center
Fri 11:25:06 PM 38.1758 -77.2822 39° Northeast 441 507 11,100 -1,800 Descending Washington Center
Fri 11:26:07 PM 38.2564 -77.1967 40° Northeast 405 466 10,000 -1,190 Descending Washington Center
Fri 11:27:07 PM 38.3364 -77.1456 27° Northeast 343 395 8,700 -1,339 Descending Washington Center
Fri 11:28:08 PM 38.4158 -77.1181 15° North 318 366 7,300 -1,412 Descending Washington Center
Fri 11:29:06 PM 38.4933 -77.0906 16° North 295 339 5,900 -1,210 Descending Washington Center
Fri 11:30:07 PM 38.5667 -77.0628 16° North 282 325 4,900 -1,041 Descending Washington Center
Fri 11:31:07 PM 38.6419 -77.0375 15° North 277 319 3,800 -1,224 Descending Washington Center
Fri 11:31:45 PM 38.6833 -77.0167 21° North 270 311 2,900 -1,239 Descending Potomac TRACON
Fri 11:32:39 PM 38.7500 -77.0333 349° North 225 259 1,900 -1,053 Descending Potomac TRACON
Fri 11:33:39 PM 38.8000 -77.0333 360° North 149 171 900 -842 Descending Potomac TRACON
Fri 11:34:33 PM 38.8333 -77.0333 360° North 135 155 300 -667 Descending Potomac TRACON
Fri 11:36:00 PM 38.8500 -77.0333 North  Level FlightAware Approximate
Fri 11:43:00 PM 38.8519 -77.0377 North  Level Estimated

Login

Don't have an account? Register now (free) for customized features, flight alerts, and more!